Terminal Aerodrome Forecast
Issued by NWS North Platte, NE

Home | Current Version | Previous Version | Graphics & Text | Print | Product List | Glossary On
Versions: 1 2 3 4 5 6 7 8 9 10 11
160
FTUS43 KLBF 231120
TAFVTN
TAF
KVTN 231120Z 2312/2412 16006KT P6SM BKN200
     FM231400 21010KT P6SM SCT250
     FM231800 31013G19KT P6SM SCT250
     FM240100 34007KT P6SM SCT250=

USA.gov is the U.S. government's official web portal to all federal, state and local government web resources and services.